Time;durP1;ratioP1;P1;durP2;ratioP2;P2;SDS_P1;SDS_P2;PMS_P1;PMS_P2;Temp;Humidity;BMP_temperature;BMP_pressure;BME280_temperature;BME280_humidity;BME280_pressure;Samples;Min_cycle;Max_cycle;Signal;HPM_P1;HPM_P2
2023/05/10 00:03:46;;;;;;;6.80;5.70;;;15.60;99.90;;;;;;12464092;28;20037;-39
2023/05/10 00:09:48;;;;;;;7.75;6.43;;;15.40;99.90;;;;;;12474866;28;20435;-39
2023/05/10 00:15:50;;;;;;;8.52;6.43;;;15.50;99.90;;;;;;12479750;28;20038;-40
2023/05/10 00:21:52;;;;;;;10.25;6.75;;;15.30;99.90;;;;;;12477789;28;20553;-40
2023/05/10 00:27:55;;;;;;;10.10;8.15;;;15.30;99.90;;;;;;12480315;28;20132;-39
2023/05/10 00:33:57;;;;;;;11.82;8.90;;;15.30;99.90;;;;;;12449879;28;20042;-39
2023/05/10 00:39:58;;;;;;;12.07;9.73;;;15.30;99.90;;;;;;12472620;28;20536;-41
2023/05/10 00:46:00;;;;;;;9.35;7.35;;;15.40;99.90;;;;;;12471684;28;20162;-39
2023/05/10 00:52:03;;;;;;;9.85;7.78;;;15.40;99.90;;;;;;12467930;28;20410;-40
2023/05/10 00:58:05;;;;;;;11.38;9.00;;;15.50;99.90;;;;;;12473904;28;20064;-40
2023/05/10 01:04:09;;;;;;;11.38;9.15;;;15.50;99.90;;;;;;12471110;28;20037;-40
2023/05/10 01:10:11;;;;;;;10.10;7.82;;;15.50;99.90;;;;;;12433123;28;20136;-39
2023/05/10 01:16:13;;;;;;;8.98;7.90;;;15.50;99.90;;;;;;12434338;28;20046;-40
2023/05/10 01:22:52;;;;;;;11.73;9.27;;;15.50;99.90;;;;;;12433749;28;20095;-40
2023/05/10 01:29:07;;;;;;;11.55;10.00;;;15.50;99.90;;;;;;12440410;28;20056;-39
2023/05/10 01:35:26;;;;;;;12.15;10.05;;;15.40;99.90;;;;;;12442720;28;20503;-40
2023/05/10 01:41:41;;;;;;;16.48;11.02;;;15.20;99.90;;;;;;12424414;28;20193;-39
2023/05/10 01:47:58;;;;;;;12.90;10.00;;;15.20;99.90;;;;;;12449062;28;20482;-40
2023/05/10 01:54:05;;;;;;;12.23;10.93;;;15.20;99.90;;;;;;12447787;28;20129;-39
2023/05/10 02:00:08;;;;;;;13.43;10.88;;;15.30;99.90;;;;;;12411125;28;20049;-40
2023/05/10 02:06:12;;;;;;;14.00;11.77;;;15.10;99.90;;;;;;12416107;28;20663;-40
2023/05/10 02:12:17;;;;;;;14.10;11.55;;;14.90;99.90;;;;;;12475296;28;20099;-40
2023/05/10 02:18:19;;;;;;;13.02;11.13;;;14.80;99.90;;;;;;12450143;28;20045;-40
2023/05/10 02:24:22;;;;;;;11.18;9.45;;;14.90;99.90;;;;;;12467457;28;20052;-40
2023/05/10 02:30:26;;;;;;;13.88;11.18;;;15.00;99.90;;;;;;12478655;28;20045;-40
2023/05/10 02:36:30;;;;;;;15.43;11.13;;;15.10;99.90;;;;;;12483443;28;20053;-42
2023/05/10 02:42:35;;;;;;;11.60;10.10;;;15.10;99.90;;;;;;12487039;28;20079;-40
2023/05/10 02:48:38;;;;;;;14.38;8.00;;;14.70;99.90;;;;;;12463330;28;20788;-40
2023/05/10 02:54:49;;;;;;;5.40;3.88;;;14.60;99.90;;;;;;12481234;28;20072;-40
2023/05/10 03:00:53;;;;;;;6.75;4.20;;;14.40;99.90;;;;;;12463194;28;20049;-40
2023/05/10 03:06:55;;;;;;;7.32;4.00;;;14.20;99.90;;;;;;12448949;28;20524;-40
2023/05/10 03:13:19;;;;;;;7.82;3.83;;;14.10;99.90;;;;;;12472816;28;20103;-39
2023/05/10 03:19:32;;;;;;;6.80;3.60;;;14.10;99.90;;;;;;12475226;28;20526;-39
2023/05/10 03:25:35;;;;;;;5.82;2.88;;;14.00;99.90;;;;;;12472996;28;21357;-40
2023/05/10 03:31:38;;;;;;;4.37;2.93;;;13.90;99.90;;;;;;12454282;28;20151;-40
2023/05/10 03:37:42;;;;;;;4.17;2.73;;;14.00;99.90;;;;;;12475019;28;20088;-40
2023/05/10 03:43:44;;;;;;;4.70;3.57;;;13.90;99.90;;;;;;12450734;28;20284;-40
2023/05/10 03:49:47;;;;;;;5.72;3.75;;;13.80;99.90;;;;;;12483093;28;20063;-40
2023/05/10 03:55:49;;;;;;;7.47;4.45;;;13.70;99.90;;;;;;12462250;28;20132;-40
2023/05/10 04:01:51;;;;;;;6.40;5.25;;;13.80;99.90;;;;;;12486469;28;20056;-39
2023/05/10 04:07:53;;;;;;;6.70;5.10;;;13.70;99.90;;;;;;12460376;28;20433;-40
2023/05/10 04:13:55;;;;;;;6.93;4.95;;;13.80;99.90;;;;;;12469545;28;20076;-39
2023/05/10 04:19:57;;;;;;;5.53;4.55;;;13.80;99.90;;;;;;12470696;28;20053;-40
2023/05/10 04:26:01;;;;;;;5.25;4.22;;;13.70;99.90;;;;;;12474380;28;20046;-40
2023/05/10 04:32:03;;;;;;;6.78;4.97;;;13.70;99.90;;;;;;12466598;28;20087;-40
2023/05/10 04:38:05;;;;;;;5.75;4.32;;;13.60;99.90;;;;;;12476710;28;20691;-39
2023/05/10 04:44:07;;;;;;;5.20;4.03;;;13.60;99.90;;;;;;12459954;28;20037;-40
2023/05/10 04:50:09;;;;;;;5.53;4.22;;;13.70;99.90;;;;;;12480705;28;20041;-40
2023/05/10 04:56:11;;;;;;;5.38;3.97;;;13.70;99.90;;;;;;12494114;28;20052;-40
2023/05/10 05:02:13;;;;;;;3.60;2.65;;;13.70;99.90;;;;;;12491706;28;20041;-39
2023/05/10 05:08:15;;;;;;;2.08;1.23;;;13.40;99.90;;;;;;12489285;28;20506;-39
2023/05/10 05:14:17;;;;;;;1.50;1.00;;;13.00;99.90;;;;;;12482617;28;20049;-39
2023/05/10 05:20:19;;;;;;;2.65;1.30;;;12.80;99.90;;;;;;12463430;28;20057;-39
2023/05/10 05:26:22;;;;;;;2.88;1.10;;;12.80;99.90;;;;;;12478539;28;20421;-39
2023/05/10 05:32:24;;;;;;;1.92;1.10;;;12.80;99.90;;;;;;12481714;28;20072;-40
2023/05/10 05:38:26;;;;;;;3.03;1.30;;;12.70;99.90;;;;;;12481417;28;20133;-40
2023/05/10 05:44:28;;;;;;;3.53;1.25;;;12.60;99.90;;;;;;12481431;28;20045;-40
2023/05/10 05:50:41;;;;;;;2.83;1.73;;;12.60;99.90;;;;;;12479599;28;20045;-39
2023/05/10 05:56:51;;;;;;;3.20;1.73;;;12.60;99.90;;;;;;12491747;28;20054;-40
2023/05/10 06:02:58;;;;;;;3.92;2.80;;;12.60;99.90;;;;;;12492335;28;20045;-40
2023/05/10 06:09:04;;;;;;;4.50;3.45;;;12.60;99.90;;;;;;12486024;28;20072;-40
2023/05/10 06:15:09;;;;;;;7.15;3.60;;;12.60;99.90;;;;;;12444614;28;20521;-40
2023/05/10 06:21:11;;;;;;;4.18;3.40;;;12.50;99.90;;;;;;12465451;28;20085;-38
2023/05/10 06:27:13;;;;;;;5.00;3.70;;;12.40;99.90;;;;;;12474413;28;20045;-40
2023/05/10 06:33:15;;;;;;;5.00;3.63;;;12.60;99.90;;;;;;12472049;28;20136;-39
2023/05/10 06:39:18;;;;;;;5.40;3.22;;;12.60;99.90;;;;;;12468947;28;20046;-39
2023/05/10 06:45:20;;;;;;;5.57;3.30;;;12.40;99.90;;;;;;12471479;28;20053;-40
2023/05/10 06:51:22;;;;;;;5.78;3.47;;;12.40;99.90;;;;;;12480374;28;20091;-39
2023/05/10 06:57:24;;;;;;;4.72;3.45;;;12.40;99.90;;;;;;12477259;28;20079;-39
2023/05/10 07:03:33;;;;;;;5.10;3.40;;;12.50;99.90;;;;;;12467098;28;20053;-39
2023/05/10 07:09:35;;;;;;;6.32;3.67;;;12.60;99.90;;;;;;12434864;28;20091;-39
2023/05/10 07:15:37;;;;;;;4.10;2.95;;;12.70;99.90;;;;;;12405792;28;20049;-40
2023/05/10 07:21:42;;;;;;;3.90;2.55;;;12.70;99.90;;;;;;12425427;28;20050;-39
2023/05/10 07:27:45;;;;;;;3.45;2.03;;;12.60;99.90;;;;;;12424903;28;20564;-39
2023/05/10 07:33:48;;;;;;;4.82;2.70;;;12.70;99.90;;;;;;12416985;28;20073;-40
2023/05/10 07:39:56;;;;;;;3.47;2.40;;;12.70;99.90;;;;;;12434490;28;20050;-40
2023/05/10 07:46:05;;;;;;;4.05;2.45;;;13.00;99.90;;;;;;12425259;28;20406;-40
2023/05/10 07:52:07;;;;;;;4.00;2.70;;;13.20;99.90;;;;;;12428864;28;20532;-40
2023/05/10 07:58:09;;;;;;;6.35;2.38;;;13.20;99.90;;;;;;12430701;28;20501;-40
2023/05/10 08:04:11;;;;;;;5.07;3.20;;;13.20;99.90;;;;;;12437263;28;20144;-40
2023/05/10 08:10:14;;;;;;;5.80;3.33;;;13.40;99.90;;;;;;12477602;28;20050;-39
2023/05/10 08:16:17;;;;;;;4.70;3.60;;;13.60;99.90;;;;;;12471752;28;20045;-40
2023/05/10 08:22:19;;;;;;;5.55;3.72;;;13.70;99.90;;;;;;12491339;28;20522;-40
2023/05/10 08:28:21;;;;;;;5.95;3.72;;;13.60;99.90;;;;;;12489924;28;20041;-39
2023/05/10 08:34:23;;;;;;;6.50;3.90;;;13.80;99.90;;;;;;12489868;28;20157;-39
2023/05/10 08:40:26;;;;;;;7.67;4.67;;;14.00;99.90;;;;;;12490894;28;20060;-40
2023/05/10 08:46:30;;;;;;;10.77;5.10;;;13.90;99.90;;;;;;12489887;28;20131;-40
2023/05/10 08:52:36;;;;;;;12.05;6.60;;;13.80;99.90;;;;;;12487739;28;20060;-39
2023/05/10 08:58:38;;;;;;;10.73;6.63;;;13.80;99.90;;;;;;12473293;28;20053;-39
2023/05/10 09:04:40;;;;;;;11.52;6.45;;;14.20;99.90;;;;;;12497721;28;20053;-40
2023/05/10 09:10:46;;;;;;;11.77;8.02;;;14.60;99.90;;;;;;12494120;28;20200;-40
2023/05/10 09:16:49;;;;;;;12.77;7.43;;;14.80;99.90;;;;;;12485576;28;20084;-40
2023/05/10 09:22:51;;;;;;;13.10;8.32;;;14.50;99.90;;;;;;12489005;28;20049;-39
2023/05/10 09:28:55;;;;;;;10.20;7.90;;;14.60;99.90;;;;;;12493127;28;20417;-40
2023/05/10 09:34:57;;;;;;;14.82;8.30;;;14.70;99.90;;;;;;12477453;28;20045;-41
2023/05/10 09:41:02;;;;;;;16.52;10.05;;;14.60;99.90;;;;;;12495315;28;21137;-40
2023/05/10 09:47:04;;;;;;;15.73;10.23;;;14.80;99.90;;;;;;12479742;28;20061;-41
2023/05/10 09:53:06;;;;;;;14.52;9.18;;;15.10;99.90;;;;;;12489395;28;20199;-40
2023/05/10 09:59:11;;;;;;;13.85;10.20;;;15.90;99.90;;;;;;12471580;28;20049;-39
2023/05/10 10:05:14;;;;;;;11.20;8.13;;;16.10;99.90;;;;;;12464912;28;20054;-40
2023/05/10 10:11:17;;;;;;;10.07;6.90;;;16.70;99.90;;;;;;12434609;28;20049;-40
2023/05/10 10:17:19;;;;;;;10.93;6.37;;;17.50;99.90;;;;;;12421524;28;20050;-41
2023/05/10 10:23:21;;;;;;;11.27;7.70;;;17.60;99.90;;;;;;12442424;28;20043;-40
2023/05/10 10:29:34;;;;;;;15.40;7.47;;;17.40;99.90;;;;;;12440815;28;20053;-40
2023/05/10 10:35:36;;;;;;;12.82;8.13;;;17.10;99.90;;;;;;12409736;28;20049;-40
2023/05/10 10:41:50;;;;;;;12.50;8.10;;;17.00;99.90;;;;;;12433659;28;20050;-41
2023/05/10 10:48:21;;;;;;;13.02;8.55;;;16.70;99.90;;;;;;12430687;28;20123;-39
2023/05/10 10:54:29;;;;;;;11.95;7.55;;;16.10;99.90;;;;;;12430677;28;20712;-39
2023/05/10 11:00:33;;;;;;;14.20;8.63;;;15.80;99.90;;;;;;12430491;28;20464;-40
2023/05/10 11:06:35;;;;;;;10.13;6.70;;;15.80;99.90;;;;;;12437588;28;20081;-42
2023/05/10 11:13:09;;;;;;;9.38;6.18;;;16.00;99.90;;;;;;12431925;28;20096;-40
2023/05/10 11:19:13;;;;;;;9.30;5.88;;;16.90;99.90;;;;;;12433889;28;20046;-41
2023/05/10 11:25:15;;;;;;;10.90;6.05;;;17.40;99.90;;;;;;12408344;28;20042;-40
2023/05/10 11:31:18;;;;;;;9.30;4.93;;;17.60;99.90;;;;;;12429717;28;20854;-40
2023/05/10 11:37:20;;;;;;;6.50;4.07;;;18.00;99.90;;;;;;12429485;28;20034;-40
2023/05/10 11:43:27;;;;;;;9.20;4.05;;;17.70;99.90;;;;;;12431038;28;20054;-40
2023/05/10 11:49:30;;;;;;;4.90;3.20;;;18.10;99.90;;;;;;12422768;28;20210;-41
2023/05/10 11:55:33;;;;;;;8.27;3.30;;;17.80;99.90;;;;;;12428361;28;20194;-40
2023/05/10 12:01:35;;;;;;;;;;;17.90;99.90;;;;;;12428381;28;20042;-40
2023/05/10 12:07:37;;;;;;;9.98;3.50;;;17.80;99.90;;;;;;12448948;28;19936;-44
2023/05/10 12:13:40;;;;;;;8.95;4.57;;;18.50;99.90;;;;;;12475392;28;20045;-39
2023/05/10 12:19:43;;;;;;;6.17;4.03;;;17.60;99.90;;;;;;12483149;28;20069;-39
2023/05/10 12:25:45;;;;;;;6.28;4.15;;;17.60;99.90;;;;;;12479594;28;20052;-40
2023/05/10 12:31:58;;;;;;;7.25;4.97;;;17.50;99.90;;;;;;12470291;28;20494;-40
2023/05/10 12:38:00;;;;;;;7.30;4.28;;;18.10;99.90;;;;;;12473887;28;20087;-40
2023/05/10 12:44:02;;;;;;;5.80;3.20;;;18.60;99.90;;;;;;12471329;28;20132;-40
2023/05/10 12:50:05;;;;;;;7.13;3.92;;;19.00;99.90;;;;;;12478761;28;20099;-40
2023/05/10 12:56:07;;;;;;;9.25;4.95;;;18.60;99.90;;;;;;12437031;28;20725;-40
2023/05/10 13:02:09;;;;;;;6.95;4.30;;;18.60;99.90;;;;;;12479678;28;20106;-40
2023/05/10 13:08:11;;;;;;;9.80;5.80;;;18.40;99.90;;;;;;12476185;28;20437;-40
2023/05/10 13:14:14;;;;;;;8.35;5.15;;;17.90;99.90;;;;;;12470170;28;20562;-40
2023/05/10 13:20:17;;;;;;;8.30;4.82;;;17.80;99.90;;;;;;12488793;28;20092;-39
2023/05/10 13:26:19;;;;;;;10.80;5.43;;;17.70;99.90;;;;;;12479041;28;20398;-39
2023/05/10 13:32:21;;;;;;;8.38;4.88;;;17.60;99.90;;;;;;12472102;28;20124;-40
2023/05/10 13:38:23;;;;;;;10.63;4.60;;;17.90;99.90;;;;;;12481972;28;20432;-39
2023/05/10 13:44:25;;;;;;;8.55;4.32;;;17.80;99.90;;;;;;12480131;28;20590;-39
2023/05/10 13:50:27;;;;;;;12.27;5.30;;;17.70;99.90;;;;;;12482040;28;20041;-39
2023/05/10 13:56:29;;;;;;;8.00;5.13;;;17.90;99.90;;;;;;12477017;28;20183;-39
2023/05/10 14:02:31;;;;;;;7.68;4.57;;;18.10;99.90;;;;;;12465084;28;20177;-40
2023/05/10 14:08:34;;;;;;;10.77;5.72;;;18.00;99.90;;;;;;12479352;28;20061;-40
2023/05/10 14:14:36;;;;;;;8.67;5.23;;;17.50;99.90;;;;;;12467814;28;20046;-41
2023/05/10 14:20:38;;;;;;;10.23;5.70;;;17.30;99.90;;;;;;12483192;28;20042;-41
2023/05/10 14:26:40;;;;;;;12.23;7.00;;;16.90;99.90;;;;;;12471821;28;20077;-41
2023/05/10 14:32:42;;;;;;;15.40;7.78;;;16.20;99.90;;;;;;12473489;28;20122;-40
2023/05/10 14:38:44;;;;;;;9.70;5.93;;;15.70;99.90;;;;;;12478745;28;20049;-41
2023/05/10 14:44:46;;;;;;;13.88;8.70;;;15.30;99.90;;;;;;12469410;28;20140;-40
2023/05/10 14:50:49;;;;;;;18.63;10.90;;;15.30;99.90;;;;;;12468351;28;20084;-40
2023/05/10 14:56:51;;;;;;;17.60;9.50;;;15.50;99.90;;;;;;12480333;28;20045;-41
2023/05/10 15:02:53;;;;;;;15.90;10.02;;;15.40;99.90;;;;;;12483026;28;20049;-41
2023/05/10 15:08:55;;;;;;;16.92;10.10;;;15.40;99.90;;;;;;12420393;28;20091;-41
2023/05/10 15:14:57;;;;;;;13.55;9.57;;;15.20;99.90;;;;;;12429663;28;20049;-41
2023/05/10 15:20:59;;;;;;;17.80;10.82;;;15.60;99.90;;;;;;12427370;28;20471;-40
2023/05/10 15:27:01;;;;;;;16.77;10.57;;;15.70;99.90;;;;;;12450790;28;20053;-41
2023/05/10 15:33:03;;;;;;;15.88;10.52;;;15.60;99.90;;;;;;12471537;28;20553;-40
2023/05/10 15:39:06;;;;;;;18.42;11.98;;;15.60;99.90;;;;;;12462565;28;20057;-40
2023/05/10 15:45:08;;;;;;;19.10;11.73;;;15.70;99.90;;;;;;12466326;28;20033;-40
2023/05/10 15:51:11;;;;;;;16.48;10.40;;;15.80;99.90;;;;;;12476759;28;20506;-41
2023/05/10 15:57:13;;;;;;;20.17;12.90;;;16.00;99.90;;;;;;12476881;28;20432;-40
2023/05/10 16:03:15;;;;;;;20.90;12.80;;;15.90;99.90;;;;;;12473582;28;20049;-41
2023/05/10 16:09:17;;;;;;;21.85;13.23;;;15.80;99.90;;;;;;12480206;28;20207;-39
2023/05/10 16:15:20;;;;;;;21.35;12.65;;;15.70;99.90;;;;;;12465799;28;20117;-40
2023/05/10 16:21:22;;;;;;;23.73;14.95;;;15.50;99.90;;;;;;12470236;28;20076;-41
2023/05/10 16:27:27;;;;;;;27.00;14.93;;;15.60;99.90;;;;;;12476257;28;20045;-39
2023/05/10 16:33:29;;;;;;;16.88;11.63;;;15.70;99.90;;;;;;12467972;28;20057;-39
2023/05/10 16:39:31;;;;;;;15.90;11.02;;;15.70;99.90;;;;;;12479423;28;20191;-39
2023/05/10 16:45:33;;;;;;;21.27;13.57;;;15.70;99.90;;;;;;12481442;28;20128;-39
2023/05/10 16:51:35;;;;;;;19.52;12.38;;;15.70;99.90;;;;;;12490297;28;20041;-39
2023/05/10 16:57:37;;;;;;;18.85;11.70;;;15.40;99.90;;;;;;12476680;28;20067;-39
2023/05/10 17:03:39;;;;;;;17.40;10.65;;;15.20;99.90;;;;;;12480049;28;20049;-39
2023/05/10 17:09:42;;;;;;;17.85;11.15;;;15.30;99.90;;;;;;12469634;28;20557;-40
2023/05/10 17:15:46;;;;;;;17.65;10.55;;;15.40;99.90;;;;;;12479920;28;20057;-39
2023/05/10 17:21:48;;;;;;;19.25;10.90;;;15.20;99.90;;;;;;12486910;28;20057;-40
2023/05/10 17:27:49;;;;;;;21.00;12.02;;;15.00;99.90;;;;;;12481385;28;20056;-39
2023/05/10 17:33:51;;;;;;;18.13;12.40;;;15.00;99.90;;;;;;12489711;28;20046;-40
2023/05/10 17:39:53;;;;;;;22.27;12.88;;;14.80;99.90;;;;;;12483271;28;20045;-40
2023/05/10 17:45:55;;;;;;;18.90;11.38;;;14.90;99.90;;;;;;12482993;28;20041;-40
2023/05/10 17:51:57;;;;;;;16.77;11.27;;;15.00;99.90;;;;;;12475410;28;20052;-40
2023/05/10 17:57:59;;;;;;;18.83;12.13;;;15.10;99.90;;;;;;12471760;28;20958;-40
2023/05/10 18:04:01;;;;;;;21.42;11.30;;;15.20;99.90;;;;;;12482741;28;20041;-39
2023/05/10 18:10:04;;;;;;;13.15;8.75;;;14.80;99.90;;;;;;12469769;28;20056;-40
2023/05/10 18:16:07;;;;;;;14.75;9.02;;;15.00;99.90;;;;;;12472911;28;20080;-39
2023/05/10 18:22:09;;;;;;;10.23;6.65;;;14.90;99.90;;;;;;12480256;28;20394;-40
2023/05/10 18:28:11;;;;;;;9.70;5.57;;;14.90;99.90;;;;;;12475635;28;20053;-40
2023/05/10 18:34:13;;;;;;;5.93;3.50;;;14.80;99.90;;;;;;12485846;28;20502;-40
2023/05/10 18:40:16;;;;;;;10.20;5.53;;;14.80;99.90;;;;;;12481757;28;20489;-40
2023/05/10 18:46:18;;;;;;;14.07;8.80;;;14.80;99.90;;;;;;12479557;28;20037;-40
2023/05/10 18:52:20;;;;;;;13.80;9.50;;;14.70;99.90;;;;;;12480941;28;20076;-39
2023/05/10 18:58:22;;;;;;;19.52;12.27;;;14.40;99.90;;;;;;12471686;28;20689;-40
2023/05/10 19:04:24;;;;;;;20.08;12.95;;;14.40;99.90;;;;;;12467343;28;20110;-39
2023/05/10 19:10:26;;;;;;;22.48;12.63;;;14.40;99.90;;;;;;12480444;28;20049;-39
2023/05/10 19:16:29;;;;;;;18.45;11.45;;;14.40;99.90;;;;;;12481822;28;20110;-41
2023/05/10 19:22:32;;;;;;;18.55;11.35;;;14.40;99.90;;;;;;12484680;28;20056;-39
2023/05/10 19:28:50;;;;;;;16.25;9.18;;;14.50;99.90;;;;;;12480656;28;20053;-40
2023/05/10 19:34:52;;;;;;;16.38;9.40;;;14.50;99.90;;;;;;12484843;28;20052;-39
2023/05/10 19:40:58;;;;;;;19.05;10.52;;;14.30;99.90;;;;;;12468064;28;20053;-40
2023/05/10 19:47:01;;;;;;;16.80;10.30;;;14.20;99.90;;;;;;12477009;28;20486;-39
2023/05/10 19:53:04;;;;;;;13.07;7.80;;;14.30;99.90;;;;;;12465559;28;20042;-39
2023/05/10 19:59:06;;;;;;;12.05;6.50;;;14.10;99.90;;;;;;12476069;28;20536;-39
2023/05/10 20:05:08;;;;;;;16.77;8.23;;;14.00;99.90;;;;;;12472765;28;20064;-39
2023/05/10 20:11:11;;;;;;;16.85;8.75;;;14.10;99.90;;;;;;12473543;28;20413;-40
2023/05/10 20:17:12;;;;;;;11.98;8.20;;;14.10;99.90;;;;;;12490614;28;20046;-40
2023/05/10 20:23:16;;;;;;;18.50;10.15;;;14.10;99.90;;;;;;12495115;28;20098;-39
2023/05/10 20:29:17;;;;;;;15.30;9.30;;;13.80;99.90;;;;;;12497903;28;20127;-40
2023/05/10 20:35:19;;;;;;;15.68;9.73;;;13.70;99.90;;;;;;12493163;28;20042;-40
2023/05/10 20:41:21;;;;;;;16.00;9.63;;;13.80;99.90;;;;;;12493653;28;20053;-40
2023/05/10 20:47:23;;;;;;;15.00;9.88;;;13.70;99.90;;;;;;12490655;28;20175;-41
2023/05/10 20:53:25;;;;;;;15.75;10.32;;;13.70;99.90;;;;;;12481734;28;20042;-39
2023/05/10 20:59:27;;;;;;;19.65;9.60;;;13.80;99.90;;;;;;12470326;28;20049;-40
2023/05/10 21:05:29;;;;;;;12.07;8.23;;;13.70;99.90;;;;;;12487523;28;20045;-40
2023/05/10 21:11:34;;;;;;;14.25;9.13;;;13.60;99.90;;;;;;12485156;28;20060;-41
2023/05/10 21:17:36;;;;;;;15.65;9.38;;;13.50;99.90;;;;;;12480201;28;20077;-40
2023/05/10 21:23:38;;;;;;;18.10;11.63;;;13.60;99.90;;;;;;12493106;28;20038;-40
2023/05/10 21:29:40;;;;;;;18.48;11.15;;;13.70;99.90;;;;;;12490010;28;20140;-39
2023/05/10 21:35:42;;;;;;;20.02;11.80;;;13.70;99.90;;;;;;12453658;28;20052;-40
2023/05/10 21:41:44;;;;;;;19.73;13.10;;;13.60;99.90;;;;;;12499351;28;20053;-40
2023/05/10 21:47:46;;;;;;;20.25;13.38;;;13.60;99.90;;;;;;12484752;28;20050;-40
2023/05/10 21:53:48;;;;;;;22.02;13.77;;;13.70;99.90;;;;;;12489633;28;20406;-40
2023/05/10 21:59:51;;;;;;;23.02;13.23;;;13.70;99.90;;;;;;12487545;28;20612;-39
2023/05/10 22:05:52;;;;;;;23.63;14.90;;;13.70;99.90;;;;;;12483944;28;20413;-42
2023/05/10 22:11:54;;;;;;;24.48;14.30;;;13.70;99.90;;;;;;12487517;28;20240;-39
2023/05/10 22:17:56;;;;;;;22.02;12.90;;;13.60;99.90;;;;;;12479430;28;20076;-40
2023/05/10 22:23:58;;;;;;;22.05;13.18;;;13.60;99.90;;;;;;12484649;28;20042;-39
2023/05/10 22:30:00;;;;;;;18.88;11.70;;;13.50;99.90;;;;;;12479532;28;20049;-39
2023/05/10 22:36:02;;;;;;;19.60;11.75;;;13.60;99.90;;;;;;12481655;28;20061;-40
2023/05/10 22:42:04;;;;;;;12.27;8.93;;;13.70;99.90;;;;;;12482474;28;20096;-40
2023/05/10 22:48:08;;;;;;;19.50;11.52;;;13.80;99.90;;;;;;12477971;28;20045;-40
2023/05/10 22:54:10;;;;;;;17.85;11.40;;;13.80;99.90;;;;;;12477877;28;20041;-39
2023/05/10 23:00:12;;;;;;;11.02;8.02;;;13.80;99.90;;;;;;12482658;28;20417;-40
2023/05/10 23:06:14;;;;;;;17.75;12.15;;;13.90;99.90;;;;;;12475857;28;20071;-40
2023/05/10 23:12:16;;;;;;;19.83;11.52;;;13.80;99.90;;;;;;12456607;28;20064;-40
2023/05/10 23:18:18;;;;;;;17.20;12.10;;;13.80;99.90;;;;;;12491887;28;20136;-39
2023/05/10 23:24:20;;;;;;;24.05;13.95;;;13.80;99.90;;;;;;12476437;28;20552;-39
2023/05/10 23:30:22;;;;;;;15.35;10.48;;;13.70;99.90;;;;;;12474508;28;20094;-40
2023/05/10 23:36:24;;;;;;;18.65;12.10;;;13.80;99.90;;;;;;12467185;28;20092;-40
2023/05/10 23:42:26;;;;;;;25.42;14.27;;;13.80;99.90;;;;;;12474517;28;20057;-40
2023/05/10 23:48:28;;;;;;;22.23;14.85;;;13.80;99.90;;;;;;12472972;28;20045;-40
2023/05/10 23:54:29;;;;;;;28.20;16.38;;;13.70;99.90;;;;;;12464624;28;20438;-40
